Roswell, South Dakota
Current Conditions -  °F | °C
As of 6:10 AM on Thursday 29 Jan 2015 (Local Time) from KMDS Reporting Station
Overcast Overcast  
Wind Chill: 13°   Ceiling: 1400
Heat Index: 28°   Visibility: 10mi
Dew Point: 28°   Wind: 30mph
Humidity: 100%   Direction: 340°NNW
Pressure: 30.24"   Gusts: 36mph
Location:  44.0529°N, 97.5161°W
Report Text: KMDS 291210Z AUTO 34026G31KT 10SM OVC014 M02/M02 A3024 RMK AO2
Loading
Personal Weather Stations






























Interactive Weather Map New forecast layout! Learn more

10-Day Weather Forecast

Advertisements
Track Severe Weather on mobile